Time;durP1;ratioP1;P1;durP2;ratioP2;P2;SDS_P1;SDS_P2;PMS_P1;PMS_P2;Temp;Humidity;BMP_temperature;BMP_pressure;BME280_temperature;BME280_humidity;BME280_pressure;Samples;Min_cycle;Max_cycle;Signal;HPM_P1;HPM_P2
2022/04/09 00:04:37;;;;;;;6.00;5.10;;;;;;;5.44;71.05;97711.73;215201;1277;140373;-64
2022/04/09 00:09:39;;;;;;;3.40;3.10;;;;;;;5.41;71.29;97710.98;214975;1277;140083;-63
2022/04/09 00:14:45;;;;;;;6.80;4.80;;;;;;;5.40;71.52;97706.73;213566;1278;140109;-63
2022/04/09 00:19:49;;;;;;;5.70;3.80;;;;;;;5.43;71.48;97705.23;213287;1277;141360;-63
2022/04/09 00:24:52;;;;;;;5.70;4.80;;;;;;;5.42;71.59;97702.58;214164;1278;141959;-63
2022/04/09 00:29:54;;;;;;;4.40;3.50;;;;;;;5.38;71.87;97695.73;213986;1278;150415;-64
2022/04/09 00:34:57;;;;;;;16.80;8.00;;;;;;;5.33;72.01;97693.61;213358;1277;139945;-64
2022/04/09 00:39:59;;;;;;;8.60;5.10;;;;;;;5.33;72.21;97703.02;214257;1279;141241;-64
2022/04/09 00:45:02;;;;;;;7.70;4.80;;;;;;;5.34;72.20;97701.30;213120;1281;139635;-62
2022/04/09 00:50:07;;;;;;;6.30;4.80;;;;;;;5.28;72.46;97700.91;213358;1277;140069;-62
2022/04/09 00:55:12;;;;;;;7.80;6.10;;;;;;;5.25;72.68;97694.54;213299;1278;140088;-62
2022/04/09 01:00:15;;;;;;;5.80;5.20;;;;;;;5.24;72.56;97690.25;213264;1278;140656;-62
2022/04/09 01:05:18;;;;;;;7.30;6.20;;;;;;;5.26;72.75;97684.67;213089;1278;143119;-62
2022/04/09 01:10:21;;;;;;;11.50;5.90;;;;;;;5.31;72.90;97685.66;212993;1276;141238;-63
2022/04/09 01:15:25;;;;;;;6.70;5.20;;;;;;;5.31;73.00;97694.44;213497;1277;151448;-64
2022/04/09 01:20:29;;;;;;;7.80;5.50;;;;;;;5.32;73.15;97692.06;213719;1277;139923;-64
2022/04/09 01:25:31;;;;;;;11.00;6.80;;;;;;;5.29;73.38;97684.96;214408;1278;138883;-64
2022/04/09 01:30:34;;;;;;;8.10;5.70;;;;;;;5.28;73.14;97683.63;213460;1276;139780;-63
2022/04/09 01:35:35;;;;;;;8.20;5.20;;;;;;;5.30;73.28;97677.68;214583;1278;141109;-63
2022/04/09 01:40:38;;;;;;;7.10;5.70;;;;;;;5.31;73.30;97677.80;213853;1277;141464;-64
2022/04/09 01:45:41;;;;;;;9.90;5.70;;;;;;;5.32;73.32;97675.54;214091;1278;141077;-65
2022/04/09 01:50:44;;;;;;;9.40;6.30;;;;;;;5.33;73.47;97663.61;214769;1278;139914;-64
2022/04/09 01:55:46;;;;;;;10.00;6.40;;;;;;;5.29;73.35;97647.92;215280;1278;139355;-64
2022/04/09 02:00:48;;;;;;;7.80;6.60;;;;;;;5.26;73.63;97653.18;215545;1278;139817;-66
2022/04/09 02:05:51;;;;;;;8.20;5.70;;;;;;;5.31;73.44;97660.58;215316;1278;139858;-64
2022/04/09 02:10:56;;;;;;;9.40;6.60;;;;;;;5.29;73.49;97653.48;213713;1278;140163;-65
2022/04/09 02:15:59;;;;;;;7.70;6.50;;;;;;;5.22;73.49;97658.58;212693;1279;139364;-64
2022/04/09 02:21:02;;;;;;;8.70;7.00;;;;;;;5.19;73.73;97674.64;215432;1277;141835;-65
2022/04/09 02:26:08;;;;;;;7.10;5.50;;;;;;;5.25;73.74;97679.85;214759;1278;141385;-66
2022/04/09 02:31:11;;;;;;;10.00;6.20;;;;;;;5.32;74.20;97694.29;213406;1277;139392;-65
2022/04/09 02:36:15;;;;;;;8.40;5.90;;;;;;;5.36;74.43;97716.73;213259;1278;139145;-66
2022/04/09 02:41:17;;;;;;;13.00;6.60;;;;;;;5.40;74.24;97718.16;212865;1277;139068;-65
2022/04/09 02:46:21;;;;;;;7.60;6.90;;;;;;;5.45;74.18;97730.98;213468;1278;144539;-64
2022/04/09 02:51:23;;;;;;;7.30;6.30;;;;;;;5.49;74.38;97742.71;213081;1277;140824;-66
2022/04/09 02:56:26;;;;;;;9.10;5.60;;;;;;;5.50;74.43;97735.58;213815;1277;140722;-64
2022/04/09 03:01:31;;;;;;;10.70;7.10;;;;;;;5.47;74.67;97736.61;213206;1278;140987;-65
2022/04/09 03:06:35;;;;;;;7.90;5.10;;;;;;;5.43;74.69;97736.15;213604;1278;139175;-65
2022/04/09 03:11:38;;;;;;;7.70;6.90;;;;;;;5.34;74.75;97735.42;213894;1281;139119;-65
2022/04/09 03:16:40;;;;;;;10.70;8.60;;;;;;;5.27;75.03;97742.64;213614;1277;140100;-65
2022/04/09 03:21:42;;;;;;;24.80;8.10;;;;;;;5.18;74.84;97749.05;213214;1277;141681;-64
2022/04/09 03:26:45;;;;;;;9.20;8.20;;;;;;;5.17;75.13;97753.37;213171;1277;142281;-65
2022/04/09 03:31:47;;;;;;;12.30;8.60;;;;;;;5.18;75.25;97762.05;213155;1277;141434;-65
2022/04/09 03:36:51;;;;;;;13.80;9.00;;;;;;;5.17;75.30;97775.61;213358;1277;208430;-65
2022/04/09 03:41:54;;;;;;;12.50;9.40;;;;;;;5.10;75.24;97779.34;213493;1277;140158;-65
2022/04/09 03:47:17;;;;;;;15.20;9.00;;;;;;;4.98;75.06;97782.88;214316;1277;139599;-65
2022/04/09 03:52:19;;;;;;;12.00;7.60;;;;;;;4.89;75.16;97790.16;212948;1277;162455;-65
2022/04/09 03:57:22;;;;;;;9.00;7.50;;;;;;;4.84;75.31;97797.30;213200;1277;141338;-64
2022/04/09 04:02:26;;;;;;;10.60;7.80;;;;;;;4.78;75.25;97801.92;213898;1277;141203;-65
2022/04/09 04:07:33;;;;;;;10.60;6.30;;;;;;;4.75;75.18;97806.05;213227;1277;141113;-65
2022/04/09 04:12:36;;;;;;;6.20;5.60;;;;;;;4.65;75.21;97808.33;215739;1277;141443;-67
2022/04/09 04:17:39;;;;;;;7.50;5.10;;;;;;;4.57;75.16;97816.30;214461;1277;140169;-65
2022/04/09 04:22:43;;;;;;;7.60;5.40;;;;;;;4.56;75.50;97822.95;214760;1277;140177;-64
2022/04/09 04:27:47;;;;;;;12.10;6.30;;;;;;;4.52;75.57;97819.09;215658;1277;140473;-65
2022/04/09 04:32:50;;;;;;;8.90;4.90;;;;;;;4.53;75.38;97818.31;214798;1275;141508;-65
2022/04/09 04:37:54;;;;;;;7.40;4.90;;;;;;;4.58;75.46;97809.73;214504;1277;140455;-65
2022/04/09 04:42:57;;;;;;;8.50;6.70;;;;;;;4.63;75.54;97800.54;213328;1277;140876;-64
2022/04/09 04:47:59;;;;;;;6.80;6.20;;;;;;;4.63;75.21;97801.82;213305;1276;141158;-64
2022/04/09 04:53:06;;;;;;;10.20;5.80;;;;;;;4.60;75.49;97808.31;214034;1277;140192;-65
2022/04/09 04:58:08;;;;;;;9.20;6.40;;;;;;;4.57;75.81;97816.22;213358;1278;140518;-65
2022/04/09 05:03:12;;;;;;;7.60;5.80;;;;;;;4.60;75.87;97829.11;213011;1278;140408;-64
2022/04/09 05:08:16;;;;;;;10.60;6.80;;;;;;;4.66;75.63;97838.27;213652;1277;140201;-65
2022/04/09 05:13:18;;;;;;;11.20;5.80;;;;;;;4.72;75.97;97833.88;213029;1277;141587;-64
2022/04/09 05:18:22;;;;;;;9.90;6.60;;;;;;;4.77;76.18;97836.48;212749;1277;139783;-65
2022/04/09 05:23:27;;;;;;;6.30;5.20;;;;;;;4.81;75.95;97843.52;213240;1277;139931;-65
2022/04/09 05:28:30;;;;;;;7.80;6.50;;;;;;;4.77;76.06;97853.95;213074;1277;140354;-65
2022/04/09 05:33:34;;;;;;;9.60;7.50;;;;;;;4.75;76.22;97859.52;212925;1277;140416;-64
2022/04/09 05:38:38;;;;;;;10.30;6.30;;;;;;;4.86;76.58;97867.22;213753;1276;141228;-64
2022/04/09 05:43:40;;;;;;;8.40;6.90;;;;;;;5.02;76.40;97872.51;212998;1276;141844;-64
2022/04/09 05:48:42;;;;;;;9.00;6.60;;;;;;;5.16;76.48;97876.34;212856;1277;140302;-64
2022/04/09 05:53:44;;;;;;;11.10;8.00;;;;;;;5.25;76.60;97880.66;213851;1276;141996;-64
2022/04/09 05:58:47;;;;;;;7.60;6.80;;;;;;;5.40;76.38;97883.92;214223;1277;141299;-65
2022/04/09 06:04:11;;;;;;;7.40;6.60;;;;;;;5.59;76.23;97881.12;213916;1276;141609;-66
2022/04/09 06:09:15;;;;;;;12.60;7.00;;;;;;;5.78;76.38;97880.73;215040;1277;140342;-66
2022/04/09 06:14:18;;;;;;;9.50;6.90;;;;;;;5.93;75.72;97881.17;214734;1276;139945;-65
2022/04/09 06:19:20;;;;;;;14.00;8.00;;;;;;;6.04;75.59;97891.46;215818;1276;139985;-65
2022/04/09 06:24:23;;;;;;;7.20;6.50;;;;;;;6.11;75.00;97904.58;215825;1275;141370;-65
2022/04/09 06:29:26;;;;;;;13.80;7.40;;;;;;;6.18;74.63;97922.85;215431;1277;141039;-66
2022/04/09 06:34:29;;;;;;;8.60;6.40;;;;;;;6.27;74.56;97938.48;215905;1275;139304;-66
2022/04/09 06:39:31;;;;;;;13.80;10.70;;;;;;;6.32;74.53;97951.88;215761;1276;139844;-66
2022/04/09 06:44:33;;;;;;;9.70;6.30;;;;;;;6.36;74.43;97967.16;214872;1276;141137;-66
2022/04/09 06:49:38;;;;;;;9.00;6.40;;;;;;;6.52;74.20;97977.34;215583;1276;140938;-66
2022/04/09 06:54:42;;;;;;;9.20;6.90;;;;;;;6.66;74.04;97981.88;213352;1276;139796;-64
2022/04/09 06:59:45;;;;;;;11.30;6.60;;;;;;;6.74;73.60;97991.42;214126;1276;140373;-64
2022/04/09 07:04:48;;;;;;;9.40;5.90;;;;;;;6.85;73.64;98018.95;213976;1276;140670;-65
2022/04/09 07:09:55;;;;;;;7.90;4.90;;;;;;;6.92;73.03;98025.16;214048;1276;141090;-65
2022/04/09 07:14:59;;;;;;;11.40;6.50;;;;;;;6.94;72.81;98035.61;212801;1276;140724;-65
2022/04/09 07:20:07;;;;;;;9.30;5.80;;;;;;;7.05;73.06;98050.80;213931;1276;140624;-65
2022/04/09 07:25:11;;;;;;;11.00;6.10;;;;;;;7.29;73.05;98068.41;213161;1277;153268;-65
2022/04/09 07:30:19;;;;;;;7.10;5.60;;;;;;;7.39;72.28;98091.70;213296;1277;140102;-66
2022/04/09 07:35:22;;;;;;;5.30;4.50;;;;;;;7.35;71.70;98109.48;213553;1277;141022;-64
2022/04/09 07:40:28;;;;;;;7.70;5.90;;;;;;;7.36;71.70;98132.55;213826;1276;139546;-65
2022/04/09 07:45:32;;;;;;;7.60;5.20;;;;;;;7.38;71.37;98148.21;213880;1276;142055;-66
2022/04/09 07:50:36;;;;;;;10.40;4.70;;;;;;;7.45;71.35;98164.29;213041;1276;140664;-65
2022/04/09 07:55:40;;;;;;;4.60;3.70;;;;;;;7.57;71.50;98182.22;214330;1277;140167;-67
2022/04/09 08:00:46;;;;;;;5.60;4.30;;;;;;;7.69;70.70;98194.02;213979;1277;140153;-66
2022/04/09 08:05:50;;;;;;;23.30;5.70;;;;;;;7.73;70.52;98207.31;213663;1276;141010;-66
2022/04/09 08:10:54;;;;;;;9.00;4.90;;;;;;;7.81;69.94;98222.23;214362;1276;142144;-66
2022/04/09 08:15:57;;;;;;;5.10;4.00;;;;;;;7.89;69.42;98225.55;214137;1276;139378;-66
2022/04/09 08:21:00;;;;;;;9.10;4.80;;;;;;;8.00;69.57;98219.61;214536;1275;139562;-66
2022/04/09 08:26:03;;;;;;;8.30;3.80;;;;;;;8.21;69.05;98216.48;213334;1277;140491;-65
2022/04/09 08:31:06;;;;;;;11.90;4.80;;;;;;;8.50;68.54;98208.00;215956;1276;140135;-66
2022/04/09 08:36:13;;;;;;;4.50;2.70;;;;;;;8.78;67.71;98209.30;215774;1276;139486;-66
2022/04/09 08:41:16;;;;;;;4.80;2.40;;;;;;;9.00;67.23;98217.71;216012;1276;140750;-66
2022/04/09 08:46:19;;;;;;;6.40;2.90;;;;;;;9.25;66.52;98219.95;213926;1276;139196;-66
2022/04/09 08:51:22;;;;;;;4.70;3.50;;;;;;;9.42;66.05;98234.24;214873;1276;138956;-65
2022/04/09 08:56:37;;;;;;;4.00;3.10;;;;;;;9.65;65.14;98247.79;214844;1276;139672;-66
2022/04/09 09:01:39;;;;;;;4.30;3.30;;;;;;;9.72;64.53;98257.27;213435;1276;139408;-65
2022/04/09 09:06:45;;;;;;;5.90;3.70;;;;;;;9.77;64.27;98268.77;214910;1275;139748;-66
2022/04/09 09:11:48;;;;;;;10.80;5.90;;;;;;;9.77;63.44;98275.79;214318;1277;139963;-67
2022/04/09 09:16:54;;;;;;;6.00;3.20;;;;;;;9.90;63.81;98268.39;213857;1275;141437;-66
2022/04/09 09:21:57;;;;;;;3.70;2.90;;;;;;;9.93;63.01;98281.17;214680;1276;140790;-66
2022/04/09 09:27:01;;;;;;;3.80;3.10;;;;;;;9.85;62.68;98280.90;214060;1276;141378;-66
2022/04/09 09:32:05;;;;;;;4.00;2.70;;;;;;;9.61;61.79;98291.51;213287;1276;141361;-66
2022/04/09 09:37:21;;;;;;;4.80;3.50;;;;;;;9.00;61.41;98313.02;213164;1276;139764;-66
2022/04/09 09:42:28;;;;;;;4.90;2.90;;;;;;;8.74;62.03;98327.88;213802;1277;140351;-66
2022/04/09 09:47:32;;;;;;;2.60;2.40;;;;;;;9.10;62.17;98321.77;213214;1274;140349;-66
2022/04/09 09:52:36;;;;;;;3.10;2.60;;;;;;;9.39;61.87;98337.20;213097;1276;140474;-66
2022/04/09 09:57:39;;;;;;;3.30;2.00;;;;;;;9.71;61.51;98337.84;213858;1276;139693;-66
2022/04/09 10:02:44;;;;;;;4.00;3.00;;;;;;;9.99;60.67;98352.36;213099;1276;140285;-66
2022/04/09 10:07:50;;;;;;;1.90;1.80;;;;;;;10.29;60.17;98354.64;213006;1277;140058;-66
2022/04/09 10:13:02;;;;;;;2.20;2.00;;;;;;;10.47;59.45;98365.83;214766;1276;139560;-67
2022/04/09 10:18:09;;;;;;;3.60;2.20;;;;;;;10.44;58.76;98367.05;213961;1276;141574;-66
2022/04/09 10:23:14;;;;;;;4.70;2.60;;;;;;;10.65;58.33;98376.17;214379;1278;140671;-66
2022/04/09 10:28:36;;;;;;;3.80;2.10;;;;;;;10.88;57.81;98386.59;214006;1276;142362;-66
2022/04/09 10:33:54;;;;;;;4.00;2.00;;;;;;;11.01;56.57;98395.84;214635;1277;140517;-66
2022/04/09 10:39:27;;;;;;;3.70;2.40;;;;;;;11.10;55.80;98400.62;214180;1276;140735;-66
2022/04/09 10:44:43;;;;;;;3.30;2.20;;;;;;;11.27;54.19;98410.51;213580;1277;140694;-68
2022/04/09 10:50:01;;;;;;;6.50;3.00;;;;;;;11.29;54.09;98417.70;215277;1276;695144;-68
2022/04/09 10:55:20;;;;;;;1.90;1.40;;;;;;;11.16;52.85;98436.13;215693;1275;140945;-66
2022/04/09 11:00:23;;;;;;;5.30;2.30;;;;;;;11.23;52.19;98449.56;214969;1277;139599;-66
2022/04/09 11:05:26;;;;;;;3.60;2.40;;;;;;;11.42;52.10;98458.10;215272;1278;139425;-68
2022/04/09 11:10:29;;;;;;;3.40;2.00;;;;;;;11.62;51.54;98467.71;213957;1277;139128;-67
2022/04/09 11:15:32;;;;;;;2.20;1.90;;;;;;;11.60;50.14;98464.23;214538;1276;139369;-67
2022/04/09 11:20:36;;;;;;;2.50;1.50;;;;;;;11.47;50.06;98477.20;213351;1277;139997;-67
2022/04/09 11:25:47;;;;;;;2.90;1.60;;;;;;;11.43;49.80;98488.20;213235;1276;139500;-67
2022/04/09 11:31:04;;;;;;;1.40;1.20;;;;;;;11.61;49.15;98489.92;213904;1277;140357;-66
2022/04/09 11:36:06;;;;;;;1.60;1.50;;;;;;;11.77;48.80;98493.19;214128;1276;139999;-68
2022/04/09 11:41:20;;;;;;;1.90;1.50;;;;;;;11.70;47.56;98493.08;213221;1276;139383;-68
2022/04/09 11:46:23;;;;;;;4.30;2.10;;;;;;;11.65;46.92;98492.35;213817;1277;140064;-66
2022/04/09 11:51:25;;;;;;;4.30;2.50;;;;;;;11.65;46.67;98494.02;213444;1276;139853;-66
2022/04/09 11:56:30;;;;;;;1.50;1.40;;;;;;;11.66;46.47;98507.29;213190;1277;140417;-66
2022/04/09 12:01:33;;;;;;;1.70;1.30;;;;;;;11.57;45.34;98514.77;213315;1276;139956;-68
2022/04/09 12:06:37;;;;;;;2.60;1.50;;;;;;;11.46;44.74;98518.29;214075;1276;139360;-67
2022/04/09 12:11:52;;;;;;;3.40;1.90;;;;;;;11.41;44.80;98527.32;212929;1277;139668;-67
2022/04/09 12:16:56;;;;;;;2.70;2.30;;;;;;;11.43;44.98;98517.98;214205;1277;139953;-68
2022/04/09 12:22:13;;;;;;;3.90;1.60;;;;;;;11.64;45.34;98519.10;214029;1276;150908;-68
2022/04/09 12:27:16;;;;;;;2.00;1.90;;;;;;;11.93;45.47;98522.46;213251;1276;139357;-66
2022/04/09 12:32:23;;;;;;;4.20;1.90;;;;;;;12.00;44.31;98534.65;214052;1276;139133;-67
2022/04/09 12:37:28;;;;;;;;;;;;;;;11.76;43.81;98537.41;215256;1276;139144;-68
2022/04/09 12:42:31;;;;;;;1.80;1.60;;;;;;;11.39;44.11;98537.25;216178;1276;125714;-67
2022/04/09 12:47:35;;;;;;;2.80;2.30;;;;;;;11.41;44.57;98541.52;214790;1274;140796;-68
2022/04/09 12:52:38;;;;;;;3.10;2.30;;;;;;;11.22;44.53;98550.34;214131;1276;139524;-66
2022/04/09 12:57:43;;;;;;;4.30;2.00;;;;;;;11.25;44.67;98557.48;215531;1276;140828;-67
2022/04/09 13:02:47;;;;;;;2.40;2.10;;;;;;;11.29;44.94;98565.70;215357;1276;140616;-67
2022/04/09 13:07:52;;;;;;;3.40;3.10;;;;;;;11.09;44.90;98573.64;215951;1275;142600;-68
2022/04/09 13:12:54;;;;;;;2.30;2.10;;;;;;;11.02;44.93;98580.30;215140;1276;140841;-67
2022/04/09 13:17:58;;;;;;;3.20;1.70;;;;;;;11.26;45.12;98575.99;214239;1276;140090;-66
2022/04/09 13:23:01;;;;;;;1.40;1.40;;;;;;;11.42;44.77;98578.12;214047;1276;140005;-66
2022/04/09 13:28:05;;;;;;;2.30;1.70;;;;;;;11.18;44.39;98584.95;213185;1276;139184;-66
2022/04/09 13:33:09;;;;;;;4.50;2.30;;;;;;;10.89;44.27;98595.59;214666;1276;139713;-64
2022/04/09 13:38:14;;;;;;;3.20;2.40;;;;;;;10.59;44.14;98609.23;214581;1276;139962;-67
2022/04/09 13:43:17;;;;;;;2.70;2.30;;;;;;;10.59;44.31;98610.93;214203;1276;140388;-66
2022/04/09 13:48:22;;;;;;;2.00;1.90;;;;;;;10.38;44.05;98616.60;213915;1276;142559;-67
2022/04/09 13:53:25;;;;;;;3.40;1.80;;;;;;;10.20;44.32;98615.55;213582;1276;140433;-67
2022/04/09 13:58:28;;;;;;;2.80;2.20;;;;;;;10.51;44.78;98608.23;213209;1276;140523;-65
2022/04/09 14:03:31;;;;;;;2.30;2.00;;;;;;;10.64;44.90;98607.59;214232;1275;139872;-67
2022/04/09 14:08:34;;;;;;;3.60;2.60;;;;;;;10.66;44.29;98606.00;213534;1276;140090;-65
2022/04/09 14:13:38;;;;;;;5.80;2.90;;;;;;;10.90;44.25;98599.66;213488;1276;140913;-67
2022/04/09 14:18:42;;;;;;;6.40;2.10;;;;;;;11.05;43.69;98602.86;214901;1275;140489;-67
2022/04/09 14:23:45;;;;;;;3.60;1.80;;;;;;;10.95;43.22;98606.06;213373;1276;141389;-66
2022/04/09 14:28:51;;;;;;;4.90;1.90;;;;;;;10.71;43.11;98615.49;213356;1276;221633;-64
2022/04/09 14:33:55;;;;;;;2.40;1.80;;;;;;;10.52;43.22;98611.87;213703;1276;139181;-66
2022/04/09 14:38:58;;;;;;;5.20;2.00;;;;;;;10.54;43.05;98617.30;214409;1276;139469;-64
2022/04/09 14:44:02;;;;;;;3.80;1.70;;;;;;;10.42;42.74;98623.02;214138;1276;140516;-65
2022/04/09 14:49:06;;;;;;;1.60;1.50;;;;;;;10.18;42.49;98620.08;215235;1276;139916;-67
2022/04/09 14:54:09;;;;;;;3.10;1.90;;;;;;;10.14;42.46;98616.58;215129;1276;140406;-65
2022/04/09 14:59:12;;;;;;;3.90;1.70;;;;;;;10.33;42.33;98624.16;215895;1275;139705;-67
2022/04/09 15:04:15;;;;;;;2.80;2.10;;;;;;;10.38;42.33;98628.13;215980;1276;139319;-70
2022/04/09 15:09:21;;;;;;;85.00;37.80;;;;;;;10.36;41.60;98634.25;213993;1276;139655;-67
2022/04/09 15:14:31;;;;;;;8.70;2.90;;;;;;;10.27;41.17;98633.08;214173;1276;140202;-66
2022/04/09 15:19:35;;;;;;;1.50;1.40;;;;;;;10.13;41.31;98641.23;215912;1276;139720;-69
2022/04/09 15:24:39;;;;;;;3.40;2.00;;;;;;;10.17;41.44;98645.55;214965;1276;140384;-70
2022/04/09 15:29:42;;;;;;;2.60;2.00;;;;;;;10.26;41.00;98653.05;213918;1276;140324;-71
2022/04/09 15:34:45;;;;;;;9.90;2.70;;;;;;;10.16;41.09;98661.86;213174;1276;140665;-69
2022/04/09 15:39:48;;;;;;;2.50;2.30;;;;;;;10.10;41.28;98661.71;212848;1276;139803;-68
2022/04/09 15:44:52;;;;;;;3.10;1.80;;;;;;;10.01;41.01;98665.61;213619;1276;139616;-65
2022/04/09 15:49:55;;;;;;;3.30;1.60;;;;;;;9.84;40.85;98672.31;212884;1276;139379;-66
2022/04/09 15:54:57;;;;;;;4.80;3.20;;;;;;;9.67;40.84;98674.70;214093;1276;139173;-67
2022/04/09 16:00:06;;;;;;;6.70;3.50;;;;;;;9.60;41.12;98676.65;213683;1276;140384;-64
2022/04/09 16:05:10;;;;;;;3.20;1.90;;;;;;;9.50;40.95;98680.23;213441;1278;140225;-65
2022/04/09 16:10:13;;;;;;;5.40;1.80;;;;;;;9.41;40.95;98687.78;215043;1276;140353;-69
2022/04/09 16:15:16;;;;;;;2.40;1.30;;;;;;;9.34;40.78;98688.18;213279;1276;139999;-66
2022/04/09 16:20:21;;;;;;;5.70;1.80;;;;;;;9.21;40.67;98691.98;213540;1276;138878;-65
2022/04/09 16:25:23;;;;;;;2.80;1.80;;;;;;;9.11;40.93;98692.33;212907;1276;139324;-65
2022/04/09 16:30:26;;;;;;;1.70;1.40;;;;;;;9.00;41.08;98700.86;214813;1276;139433;-65
2022/04/09 16:35:32;;;;;;;2.20;1.70;;;;;;;8.83;41.21;98703.60;213317;1276;139835;-65
2022/04/09 16:40:41;;;;;;;6.70;1.80;;;;;;;8.65;41.55;98703.70;214652;1276;140571;-68
2022/04/09 16:45:44;;;;;;;4.50;1.60;;;;;;;8.53;41.32;98710.52;214398;1276;139731;-63
2022/04/09 16:50:49;;;;;;;2.70;2.00;;;;;;;8.35;41.59;98715.58;213631;1276;140255;-65
2022/04/09 16:55:59;;;;;;;4.30;2.10;;;;;;;8.22;42.39;98716.81;214439;1276;139017;-64
2022/04/09 17:01:02;;;;;;;2.20;1.80;;;;;;;8.05;42.35;98723.15;214041;1276;139603;-65
2022/04/09 17:06:05;;;;;;;2.00;1.90;;;;;;;7.89;42.37;98731.73;213618;1276;139741;-65
2022/04/09 17:11:10;;;;;;;2.40;1.70;;;;;;;7.78;43.10;98737.64;215592;1276;140837;-67
2022/04/09 17:16:13;;;;;;;2.20;1.50;;;;;;;7.63;43.03;98746.09;214562;1276;245857;-64
2022/04/09 17:21:16;;;;;;;3.40;2.70;;;;;;;7.49;43.41;98754.66;214517;1276;139430;-66
2022/04/09 17:26:19;;;;;;;6.80;3.90;;;;;;;7.36;43.82;98767.52;215758;1276;139165;-69
2022/04/09 17:31:21;;;;;;;1.90;1.80;;;;;;;7.23;44.00;98772.58;214963;1276;140156;-67
2022/04/09 17:36:23;;;;;;;2.10;1.90;;;;;;;7.07;44.21;98776.66;215248;1276;139643;-64
2022/04/09 17:41:25;;;;;;;2.70;2.50;;;;;;;6.93;44.86;98783.34;215244;1276;139193;-66
2022/04/09 17:46:30;;;;;;;6.60;2.00;;;;;;;6.77;44.89;98790.27;214293;1276;139067;-65
2022/04/09 17:51:33;;;;;;;3.90;2.20;;;;;;;6.64;45.48;98803.33;214842;1276;139377;-65
2022/04/09 17:56:36;;;;;;;5.20;1.80;;;;;;;6.51;45.51;98810.65;213223;1276;140661;-67
2022/04/09 18:01:38;;;;;;;2.70;1.90;;;;;;;6.34;46.14;98812.83;213399;1276;141504;-63
2022/04/09 18:06:41;;;;;;;3.60;2.40;;;;;;;6.16;46.55;98815.88;213308;1276;139241;-64
2022/04/09 18:11:44;;;;;;;7.60;2.70;;;;;;;5.98;47.09;98818.31;213255;1276;141568;-66
2022/04/09 18:16:47;;;;;;;6.30;2.30;;;;;;;5.79;47.11;98822.83;213235;1276;140077;-65
2022/04/09 18:21:52;;;;;;;1.70;1.60;;;;;;;5.58;48.04;98826.09;212972;1276;139948;-63
2022/04/09 18:26:54;;;;;;;1.90;1.80;;;;;;;5.34;48.57;98828.64;214002;1276;140627;-65
2022/04/09 18:32:03;;;;;;;2.70;2.00;;;;;;;5.08;49.50;98834.21;213412;1277;139647;-65
2022/04/09 18:37:08;;;;;;;2.70;2.00;;;;;;;4.79;50.04;98837.62;214738;1276;139322;-65
2022/04/09 18:42:13;;;;;;;2.60;1.90;;;;;;;4.58;50.99;98839.70;215273;1276;139751;-65
2022/04/09 18:47:16;;;;;;;3.60;2.00;;;;;;;4.38;51.70;98840.85;213391;1277;139574;-65
2022/04/09 18:52:20;;;;;;;6.70;3.40;;;;;;;4.21;52.02;98844.49;214563;1276;140636;-66
2022/04/09 18:57:22;;;;;;;5.20;3.00;;;;;;;4.10;52.75;98848.74;215432;1276;139618;-63
2022/04/09 19:02:26;;;;;;;6.20;3.00;;;;;;;4.01;52.58;98858.95;216022;1276;139202;-68
2022/04/09 19:07:33;;;;;;;4.20;3.70;;;;;;;3.95;53.15;98861.60;215985;1276;139777;-71
2022/04/09 19:12:35;;;;;;;6.60;4.90;;;;;;;3.90;53.05;98862.69;215107;1276;140425;-69
2022/04/09 19:17:40;;;;;;;12.70;4.90;;;;;;;3.87;53.13;98870.81;215644;1277;139229;-68
2022/04/09 19:22:43;;;;;;;11.00;4.20;;;;;;;3.90;53.45;98875.84;215798;1276;139702;-68
2022/04/09 19:27:48;;;;;;;6.50;4.70;;;;;;;3.96;53.58;98881.15;215836;1276;139573;-69
2022/04/09 19:32:51;;;;;;;7.30;4.70;;;;;;;4.03;53.28;98889.48;213789;1277;140311;-67
2022/04/09 19:37:54;;;;;;;9.00;6.00;;;;;;;4.07;53.39;98909.88;214627;1277;139233;-67
2022/04/09 19:42:59;;;;;;;9.20;5.30;;;;;;;4.07;53.56;98916.20;214957;1277;139256;-66
2022/04/09 19:48:04;;;;;;;8.40;4.70;;;;;;;4.08;53.82;98923.30;214725;1276;139354;-66
2022/04/09 19:53:10;;;;;;;7.40;3.80;;;;;;;4.10;54.08;98947.27;212977;1277;139514;-63
2022/04/09 19:58:14;;;;;;;7.90;6.10;;;;;;;4.08;54.84;98958.48;213121;1276;139626;-66
2022/04/09 20:03:17;;;;;;;7.40;2.90;;;;;;;4.00;55.67;98961.97;214196;1277;140866;-65
2022/04/09 20:08:22;;;;;;;5.10;3.00;;;;;;;3.92;56.53;98953.42;213147;1276;140458;-67
2022/04/09 20:13:26;;;;;;;21.00;3.30;;;;;;;3.83;57.49;98949.65;212840;1277;141209;-65
2022/04/09 20:18:29;;;;;;;4.90;3.00;;;;;;;3.75;58.12;98953.16;213458;1277;139582;-63
2022/04/09 20:23:37;;;;;;;4.30;2.90;;;;;;;3.66;58.52;98950.28;212944;1277;139658;-63
2022/04/09 20:28:40;;;;;;;5.70;3.50;;;;;;;3.56;58.89;98951.02;212881;1276;139183;-64
2022/04/09 20:33:46;;;;;;;8.20;4.90;;;;;;;3.46;59.22;98961.18;214067;1274;140708;-64
2022/04/09 20:38:49;;;;;;;8.70;5.40;;;;;;;3.35;59.76;98974.07;214287;1277;139018;-68
2022/04/09 20:43:52;;;;;;;9.60;3.10;;;;;;;3.30;60.14;98981.95;214414;1277;138916;-65
2022/04/09 20:48:56;;;;;;;7.70;4.10;;;;;;;3.27;60.61;98984.55;213419;1277;139488;-64
2022/04/09 20:54:00;;;;;;;4.10;2.70;;;;;;;3.20;61.12;98988.97;213280;1276;232657;-64
2022/04/09 20:59:03;;;;;;;5.50;2.90;;;;;;;3.12;61.75;98989.09;214899;1276;139384;-68
2022/04/09 21:04:06;;;;;;;2.90;2.70;;;;;;;3.05;61.91;98988.14;215231;1276;161811;-67
2022/04/09 21:09:11;;;;;;;10.90;3.60;;;;;;;3.02;62.65;98992.58;215625;1276;139379;-65
2022/04/09 21:14:13;;;;;;;4.80;2.90;;;;;;;2.98;62.91;99001.12;215926;1276;139287;-66
2022/04/09 21:19:19;;;;;;;11.10;3.40;;;;;;;2.97;62.86;99006.91;216011;1276;138887;-65
2022/04/09 21:24:22;;;;;;;5.10;3.00;;;;;;;2.98;63.11;99014.69;214565;1276;140928;-65
2022/04/09 21:29:26;;;;;;;3.70;3.20;;;;;;;3.01;63.56;99011.69;215912;1276;141719;-66
2022/04/09 21:34:29;;;;;;;4.40;3.00;;;;;;;3.01;63.48;99011.93;215336;1276;163570;-65
2022/04/09 21:39:35;;;;;;;13.00;3.70;;;;;;;2.98;63.80;99014.93;213613;1276;139537;-63
2022/04/09 21:44:40;;;;;;;3.10;2.60;;;;;;;2.89;64.25;99015.41;213803;1276;140903;-64
2022/04/09 21:49:44;;;;;;;6.10;3.20;;;;;;;2.79;64.64;99025.89;213449;1276;140734;-65
2022/04/09 21:54:48;;;;;;;5.00;3.00;;;;;;;2.76;64.81;99029.46;214021;1276;139779;-65
2022/04/09 21:59:52;;;;;;;4.00;2.00;;;;;;;2.73;64.92;99038.45;213229;1276;141038;-65
2022/04/09 22:04:54;;;;;;;7.30;3.10;;;;;;;2.69;65.24;99041.23;213673;1276;139344;-66
2022/04/09 22:09:57;;;;;;;4.40;2.10;;;;;;;2.64;65.41;99044.27;214924;1276;138817;-66
2022/04/09 22:15:00;;;;;;;117.30;67.70;;;;;;;2.60;65.60;99054.34;213454;1276;139293;-64
2022/04/09 22:20:05;;;;;;;5.60;5.20;;;;;;;2.56;65.84;99061.16;213193;1276;139389;-65
2022/04/09 22:25:08;;;;;;;7.40;3.30;;;;;;;2.56;65.96;99065.58;213265;1276;139550;-63
2022/04/09 22:30:11;;;;;;;4.50;3.40;;;;;;;2.58;65.94;99066.18;214012;1277;140065;-62
2022/04/09 22:35:16;;;;;;;8.20;7.40;;;;;;;2.61;65.97;99075.27;213463;1277;141290;-63
2022/04/09 22:40:19;;;;;;;10.70;6.20;;;;;;;2.58;65.95;99083.71;214951;1276;138903;-65
2022/04/09 22:45:22;;;;;;;8.40;5.70;;;;;;;2.55;66.31;99089.53;214705;1276;140045;-64
2022/04/09 22:50:28;;;;;;;7.20;6.50;;;;;;;2.50;66.36;99094.86;212744;1276;1410203;-64
2022/04/09 22:55:32;;;;;;;4.20;3.20;;;;;;;2.44;66.91;99100.08;213818;1276;140847;-64
2022/04/09 23:00:34;;;;;;;3.10;2.80;;;;;;;2.38;66.78;99104.15;214162;1276;139165;-64
2022/04/09 23:05:37;;;;;;;4.80;3.20;;;;;;;2.31;66.43;99112.17;215691;1276;139308;-66
2022/04/09 23:10:39;;;;;;;8.70;3.70;;;;;;;2.29;66.90;99115.67;214971;1276;140623;-65
2022/04/09 23:15:42;;;;;;;10.60;3.30;;;;;;;2.31;67.21;99118.60;215878;1276;140537;-65
2022/04/09 23:20:45;;;;;;;6.00;3.20;;;;;;;2.36;66.91;99124.01;215739;1275;140397;-65
2022/04/09 23:25:47;;;;;;;9.50;3.60;;;;;;;2.35;67.07;99129.46;215891;1276;139257;-65
2022/04/09 23:30:50;;;;;;;5.50;3.10;;;;;;;2.31;67.23;99125.52;216000;1276;140700;-64